sensor_id;sensor_type;location;lat;lon;timestamp;pressure;altitude;pressure_sealevel;temperature;humidity
71361;BME280;59166;48.908;1.870;2023-09-19T00:01:59;100134.59;;;13.70;100.00
71361;BME280;59166;48.908;1.870;2023-09-19T00:07:00;100141.13;;;13.69;100.00
71361;BME280;59166;48.908;1.870;2023-09-19T00:12:03;100139.78;;;13.62;100.00
71361;BME280;59166;48.908;1.870;2023-09-19T00:17:04;100160.16;;;13.59;100.00
71361;BME280;59166;48.908;1.870;2023-09-19T00:22:04;100160.22;;;13.54;100.00
71361;BME280;59166;48.908;1.870;2023-09-19T00:27:06;100156.16;;;13.52;100.00
71361;BME280;59166;48.908;1.870;2023-09-19T00:32:07;100155.91;;;13.48;100.00
71361;BME280;59166;48.908;1.870;2023-09-19T00:37:07;100155.38;;;13.46;100.00
71361;BME280;59166;48.908;1.870;2023-09-19T00:42:18;100158.38;;;13.45;100.00
71361;BME280;59166;48.908;1.870;2023-09-19T00:47:18;100150.78;;;13.41;100.00
71361;BME280;59166;48.908;1.870;2023-09-19T00:52:19;100166.81;;;13.43;100.00
71361;BME280;59166;48.908;1.870;2023-09-19T00:57:23;100161.09;;;13.45;100.00
71361;BME280;59166;48.908;1.870;2023-09-19T01:02:27;100161.13;;;13.39;100.00
71361;BME280;59166;48.908;1.870;2023-09-19T01:07:30;100156.53;;;13.40;100.00
71361;BME280;59166;48.908;1.870;2023-09-19T01:12:43;100155.47;;;13.31;100.00
71361;BME280;59166;48.908;1.870;2023-09-19T01:17:53;100162.84;;;13.25;100.00
71361;BME280;59166;48.908;1.870;2023-09-19T01:23:02;100162.84;;;13.30;100.00
71361;BME280;59166;48.908;1.870;2023-09-19T01:28:24;100158.50;;;13.29;100.00
71361;BME280;59166;48.908;1.870;2023-09-19T01:33:53;100168.28;;;13.25;100.00
71361;BME280;59166;48.908;1.870;2023-09-19T01:38:55;100179.16;;;13.20;100.00
71361;BME280;59166;48.908;1.870;2023-09-19T01:44:00;100172.38;;;13.18;100.00
71361;BME280;59166;48.908;1.870;2023-09-19T01:49:15;100182.41;;;13.17;100.00
71361;BME280;59166;48.908;1.870;2023-09-19T01:54:26;100185.13;;;13.17;100.00
71361;BME280;59166;48.908;1.870;2023-09-19T01:59:34;100186.56;;;13.10;100.00
71361;BME280;59166;48.908;1.870;2023-09-19T02:04:37;100199.00;;;13.11;100.00
71361;BME280;59166;48.908;1.870;2023-09-19T02:09:38;100188.97;;;13.11;100.00
71361;BME280;59166;48.908;1.870;2023-09-19T02:14:38;100197.09;;;13.11;100.00
71361;BME280;59166;48.908;1.870;2023-09-19T02:19:40;100193.63;;;13.06;100.00
71361;BME280;59166;48.908;1.870;2023-09-19T02:24:41;100196.34;;;13.01;100.00
71361;BME280;59166;48.908;1.870;2023-09-19T02:29:42;100185.50;;;13.01;100.00
71361;BME280;59166;48.908;1.870;2023-09-19T02:34:44;100193.63;;;13.01;100.00
71361;BME280;59166;48.908;1.870;2023-09-19T02:39:45;100178.78;;;12.93;100.00
71361;BME280;59166;48.908;1.870;2023-09-19T02:44:45;100187.19;;;12.92;100.00
71361;BME280;59166;48.908;1.870;2023-09-19T02:49:47;100182.31;;;12.83;100.00
71361;BME280;59166;48.908;1.870;2023-09-19T02:54:48;100188.84;;;12.82;100.00
71361;BME280;59166;48.908;1.870;2023-09-19T02:59:49;100195.09;;;12.78;100.00
71361;BME280;59166;48.908;1.870;2023-09-19T03:04:51;100190.22;;;12.80;100.00
71361;BME280;59166;48.908;1.870;2023-09-19T03:09:52;100195.91;;;12.78;100.00
71361;BME280;59166;48.908;1.870;2023-09-19T03:14:52;100186.16;;;12.77;100.00
71361;BME280;59166;48.908;1.870;2023-09-19T03:19:54;100188.31;;;12.80;100.00
71361;BME280;59166;48.908;1.870;2023-09-19T03:24:55;100186.44;;;12.71;100.00
71361;BME280;59166;48.908;1.870;2023-09-19T03:29:56;100187.25;;;12.71;100.00
71361;BME280;59166;48.908;1.870;2023-09-19T03:34:58;100188.06;;;12.72;100.00
71361;BME280;59166;48.908;1.870;2023-09-19T03:39:59;100177.81;;;12.64;100.00
71361;BME280;59166;48.908;1.870;2023-09-19T03:45:00;100175.63;;;12.66;100.00
71361;BME280;59166;48.908;1.870;2023-09-19T03:50:02;100181.63;;;12.58;100.00
71361;BME280;59166;48.908;1.870;2023-09-19T03:55:03;100177.31;;;12.52;100.00
71361;BME280;59166;48.908;1.870;2023-09-19T04:00:05;100181.38;;;12.49;100.00
71361;BME280;59166;48.908;1.870;2023-09-19T04:05:08;100174.59;;;12.47;100.00
71361;BME280;59166;48.908;1.870;2023-09-19T04:10:09;100180.84;;;12.47;100.00
71361;BME280;59166;48.908;1.870;2023-09-19T04:15:10;100175.72;;;12.46;100.00
71361;BME280;59166;48.908;1.870;2023-09-19T04:20:12;100163.25;;;12.45;100.00
71361;BME280;59166;48.908;1.870;2023-09-19T04:25:13;100170.84;;;12.43;100.00
71361;BME280;59166;48.908;1.870;2023-09-19T04:30:13;100169.22;;;12.42;100.00
71361;BME280;59166;48.908;1.870;2023-09-19T04:35:16;100181.41;;;12.39;100.00
71361;BME280;59166;48.908;1.870;2023-09-19T04:40:16;100182.22;;;12.45;100.00
71361;BME280;59166;48.908;1.870;2023-09-19T04:45:17;100175.72;;;12.41;100.00
71361;BME280;59166;48.908;1.870;2023-09-19T04:50:20;100181.41;;;12.39;100.00
71361;BME280;59166;48.908;1.870;2023-09-19T04:55:21;100179.78;;;12.38;100.00
71361;BME280;59166;48.908;1.870;2023-09-19T05:00:22;100187.09;;;12.27;100.00
71361;BME280;59166;48.908;1.870;2023-09-19T05:05:24;100195.22;;;12.27;100.00
71361;BME280;59166;48.908;1.870;2023-09-19T05:10:25;100193.31;;;12.23;100.00
71361;BME280;59166;48.908;1.870;2023-09-19T05:15:26;100197.94;;;12.22;100.00
71361;BME280;59166;48.908;1.870;2023-09-19T05:20:28;100191.97;;;12.20;100.00
71361;BME280;59166;48.908;1.870;2023-09-19T05:25:29;100199.56;;;12.18;100.00
71361;BME280;59166;48.908;1.870;2023-09-19T05:30:29;100200.13;;;12.15;100.00
71361;BME280;59166;48.908;1.870;2023-09-19T05:35:32;100209.59;;;12.18;100.00
71361;BME280;59166;48.908;1.870;2023-09-19T05:40:32;100214.47;;;12.11;100.00
71361;BME280;59166;48.908;1.870;2023-09-19T05:45:33;100228.81;;;12.11;100.00
71361;BME280;59166;48.908;1.870;2023-09-19T05:50:35;100229.09;;;12.10;100.00
71361;BME280;59166;48.908;1.870;2023-09-19T05:55:36;100235.59;;;12.14;100.00
71361;BME280;59166;48.908;1.870;2023-09-19T06:00:37;100236.94;;;12.16;100.00
71361;BME280;59166;48.908;1.870;2023-09-19T06:05:39;100237.22;;;12.15;100.00
71361;BME280;59166;48.908;1.870;2023-09-19T06:10:39;100237.50;;;12.18;100.00
71361;BME280;59166;48.908;1.870;2023-09-19T06:15:40;100240.19;;;12.23;100.00
71361;BME280;59166;48.908;1.870;2023-09-19T06:20:42;100246.16;;;12.25;100.00
71361;BME280;59166;48.908;1.870;2023-09-19T06:25:43;100240.75;;;12.30;100.00
71361;BME280;59166;48.908;1.870;2023-09-19T06:30:43;100247.78;;;12.31;100.00
71361;BME280;59166;48.908;1.870;2023-09-19T06:35:45;100248.88;;;12.46;100.00
71361;BME280;59166;48.908;1.870;2023-09-19T06:40:46;100251.56;;;12.56;100.00
71361;BME280;59166;48.908;1.870;2023-09-19T06:45:47;100254.75;;;12.68;100.00
71361;BME280;59166;48.908;1.870;2023-09-19T06:50:49;100254.97;;;12.92;100.00
71361;BME280;59166;48.908;1.870;2023-09-19T06:55:50;100257.38;;;13.03;100.00
71361;BME280;59166;48.908;1.870;2023-09-19T07:00:50;100246.44;;;13.23;100.00
71361;BME280;59166;48.908;1.870;2023-09-19T07:05:52;100249.84;;;13.39;100.00
71361;BME280;59166;48.908;1.870;2023-09-19T07:10:53;100235.47;;;13.44;100.00
71361;BME280;59166;48.908;1.870;2023-09-19T07:15:53;100239.50;;;13.46;100.00
71361;BME280;59166;48.908;1.870;2023-09-19T07:20:58;100228.34;;;13.53;100.00
71361;BME280;59166;48.908;1.870;2023-09-19T07:25:59;100231.75;;;13.68;100.00
71361;BME280;59166;48.908;1.870;2023-09-19T07:31:01;100233.63;;;13.78;100.00
71361;BME280;59166;48.908;1.870;2023-09-19T07:36:04;100230.34;;;13.81;100.00
71361;BME280;59166;48.908;1.870;2023-09-19T07:41:04;100237.34;;;13.87;100.00
71361;BME280;59166;48.908;1.870;2023-09-19T07:46:06;100232.78;;;13.82;100.00
71361;BME280;59166;48.908;1.870;2023-09-19T07:51:08;100242.50;;;13.88;100.00
71361;BME280;59166;48.908;1.870;2023-09-19T07:56:09;100236.22;;;13.93;100.00
71361;BME280;59166;48.908;1.870;2023-09-19T08:01:10;100236.19;;;13.98;100.00
71361;BME280;59166;48.908;1.870;2023-09-19T08:06:12;100240.88;;;14.21;100.00
71361;BME280;59166;48.908;1.870;2023-09-19T08:11:13;100244.22;;;14.42;100.00
71361;BME280;59166;48.908;1.870;2023-09-19T08:16:13;100242.31;;;14.66;100.00
71361;BME280;59166;48.908;1.870;2023-09-19T08:21:16;100244.06;;;14.81;100.00
71361;BME280;59166;48.908;1.870;2023-09-19T08:26:16;100253.19;;;14.95;100.00
71361;BME280;59166;48.908;1.870;2023-09-19T08:31:17;100268.31;;;15.25;100.00
71361;BME280;59166;48.908;1.870;2023-09-19T08:36:19;100259.06;;;15.63;100.00
71361;BME280;59166;48.908;1.870;2023-09-19T08:41:19;100253.38;;;15.97;100.00
71361;BME280;59166;48.908;1.870;2023-09-19T08:46:24;100256.31;;;16.01;100.00
71361;BME280;59166;48.908;1.870;2023-09-19T08:51:32;100255.59;;;16.14;100.00
71361;BME280;59166;48.908;1.870;2023-09-19T08:56:34;100260.81;;;16.42;100.00
71361;BME280;59166;48.908;1.870;2023-09-19T09:01:36;100259.44;;;16.86;100.00
71361;BME280;59166;48.908;1.870;2023-09-19T09:06:41;100250.66;;;17.16;100.00
71361;BME280;59166;48.908;1.870;2023-09-19T09:11:42;100254.38;;;17.48;95.29
71361;BME280;59166;48.908;1.870;2023-09-19T09:16:43;100250.75;;;17.74;95.52
71361;BME280;59166;48.908;1.870;2023-09-19T09:21:45;100257.31;;;17.87;94.49
71361;BME280;59166;48.908;1.870;2023-09-19T09:26:46;100252.63;;;18.10;92.82
71361;BME280;59166;48.908;1.870;2023-09-19T09:31:46;100248.78;;;18.33;87.28
71361;BME280;59166;48.908;1.870;2023-09-19T09:36:48;100263.53;;;18.23;86.58
71361;BME280;59166;48.908;1.870;2023-09-19T09:41:50;100254.19;;;18.46;87.17
71361;BME280;59166;48.908;1.870;2023-09-19T09:46:50;100254.03;;;18.52;90.15
71361;BME280;59166;48.908;1.870;2023-09-19T09:51:59;100261.63;;;17.88;91.20
71361;BME280;59166;48.908;1.870;2023-09-19T09:57:01;100240.97;;;17.24;92.61
71361;BME280;59166;48.908;1.870;2023-09-19T10:02:02;100246.59;;;17.14;96.04
71361;BME280;59166;48.908;1.870;2023-09-19T10:07:04;100235.09;;;17.17;94.47
71361;BME280;59166;48.908;1.870;2023-09-19T10:12:06;100230.53;;;17.12;93.13
71361;BME280;59166;48.908;1.870;2023-09-19T10:17:09;100222.97;;;17.09;95.68
71361;BME280;59166;48.908;1.870;2023-09-19T10:22:12;100215.38;;;17.06;100.00
71361;BME280;59166;48.908;1.870;2023-09-19T10:27:14;100221.03;;;17.23;95.86
71361;BME280;59166;48.908;1.870;2023-09-19T10:32:15;100197.09;;;17.78;94.29
71361;BME280;59166;48.908;1.870;2023-09-19T10:37:18;100199.03;;;18.22;93.44
71361;BME280;59166;48.908;1.870;2023-09-19T10:42:23;100205.38;;;18.71;91.09
71361;BME280;59166;48.908;1.870;2023-09-19T10:47:25;100210.31;;;19.08;88.30
71361;BME280;59166;48.908;1.870;2023-09-19T10:52:27;100207.00;;;19.28;88.13
71361;BME280;59166;48.908;1.870;2023-09-19T10:57:29;100212.25;;;19.08;89.80
71361;BME280;59166;48.908;1.870;2023-09-19T11:02:30;100216.25;;;19.02;86.80
71361;BME280;59166;48.908;1.870;2023-09-19T11:07:32;100212.94;;;19.22;88.87
71361;BME280;59166;48.908;1.870;2023-09-19T11:12:55;100205.22;;;19.32;87.35
71361;BME280;59166;48.908;1.870;2023-09-19T11:17:55;100209.44;;;19.38;88.26
71361;BME280;59166;48.908;1.870;2023-09-19T11:23:21;100213.13;;;19.25;84.42
71361;BME280;59166;48.908;1.870;2023-09-19T11:28:32;100207.41;;;19.05;80.10
71361;BME280;59166;48.908;1.870;2023-09-19T11:33:33;100206.72;;;18.90;80.12
71361;BME280;59166;48.908;1.870;2023-09-19T11:39:00;100199.03;;;19.10;81.36
71361;BME280;59166;48.908;1.870;2023-09-19T11:44:34;100203.47;;;19.71;78.24
71361;BME280;59166;48.908;1.870;2023-09-19T11:49:35;100195.56;;;19.69;80.42
71361;BME280;59166;48.908;1.870;2023-09-19T11:54:42;100188.63;;;19.55;77.80
71361;BME280;59166;48.908;1.870;2023-09-19T11:59:42;100191.53;;;19.49;76.68
71361;BME280;59166;48.908;1.870;2023-09-19T12:04:44;100199.09;;;19.27;78.38
71361;BME280;59166;48.908;1.870;2023-09-19T12:09:47;100193.19;;;18.94;77.24
71361;BME280;59166;48.908;1.870;2023-09-19T12:14:49;100187.03;;;18.80;81.11
71361;BME280;59166;48.908;1.870;2023-09-19T12:19:50;100176.78;;;18.94;77.03
71361;BME280;59166;48.908;1.870;2023-09-19T12:24:53;100184.25;;;19.19;79.42
71361;BME280;59166;48.908;1.870;2023-09-19T12:29:53;100175.56;;;19.34;77.75
71361;BME280;59166;48.908;1.870;2023-09-19T12:34:54;100175.72;;;19.46;78.02
71361;BME280;59166;48.908;1.870;2023-09-19T12:40:04;100172.84;;;19.52;79.02
71361;BME280;59166;48.908;1.870;2023-09-19T12:45:07;100168.16;;;19.78;80.15
71361;BME280;59166;48.908;1.870;2023-09-19T12:50:09;100163.13;;;19.80;76.86
71361;BME280;59166;48.908;1.870;2023-09-19T12:55:22;100165.09;;;19.71;76.92
71361;BME280;59166;48.908;1.870;2023-09-19T13:00:31;100167.03;;;19.79;77.63
71361;BME280;59166;48.908;1.870;2023-09-19T13:05:47;100152.00;;;19.76;75.52
71361;BME280;59166;48.908;1.870;2023-09-19T13:11:03;100158.97;;;19.74;75.91
71361;BME280;59166;48.908;1.870;2023-09-19T13:16:04;100146.19;;;19.95;77.78
71361;BME280;59166;48.908;1.870;2023-09-19T13:21:08;100136.34;;;19.94;72.61
71361;BME280;59166;48.908;1.870;2023-09-19T13:26:10;100132.91;;;20.14;73.82
71361;BME280;59166;48.908;1.870;2023-09-19T13:31:11;100131.59;;;20.29;73.50
71361;BME280;59166;48.908;1.870;2023-09-19T13:36:11;100138.34;;;20.40;73.69
71361;BME280;59166;48.908;1.870;2023-09-19T13:41:14;100121.59;;;20.24;74.55
71361;BME280;59166;48.908;1.870;2023-09-19T13:46:14;100125.34;;;20.11;74.41
71361;BME280;59166;48.908;1.870;2023-09-19T13:51:15;100139.28;;;19.89;74.47
71361;BME280;59166;48.908;1.870;2023-09-19T13:56:17;100127.69;;;19.75;75.78
71361;BME280;59166;48.908;1.870;2023-09-19T14:01:18;100122.34;;;19.78;76.29
71361;BME280;59166;48.908;1.870;2023-09-19T14:06:19;100113.16;;;19.74;75.37
71361;BME280;59166;48.908;1.870;2023-09-19T14:11:21;100104.22;;;20.12;77.12
71361;BME280;59166;48.908;1.870;2023-09-19T14:16:21;100099.84;;;20.19;73.80
71361;BME280;59166;48.908;1.870;2023-09-19T14:21:22;100100.81;;;20.23;76.13
71361;BME280;59166;48.908;1.870;2023-09-19T14:26:24;100091.19;;;20.38;74.72
71361;BME280;59166;48.908;1.870;2023-09-19T14:31:25;100086.06;;;20.28;75.44
71361;BME280;59166;48.908;1.870;2023-09-19T14:36:26;100080.13;;;20.26;74.17
71361;BME280;59166;48.908;1.870;2023-09-19T14:41:28;100086.59;;;20.21;76.75
71361;BME280;59166;48.908;1.870;2023-09-19T14:46:29;100071.03;;;20.34;75.02
71361;BME280;59166;48.908;1.870;2023-09-19T14:51:30;100065.22;;;20.35;78.38
71361;BME280;59166;48.908;1.870;2023-09-19T14:56:32;100068.06;;;20.47;77.13
71361;BME280;59166;48.908;1.870;2023-09-19T15:01:33;100063.28;;;20.86;74.98
71361;BME280;59166;48.908;1.870;2023-09-19T15:06:34;100065.75;;;20.87;75.61
71361;BME280;59166;48.908;1.870;2023-09-19T15:11:36;100062.06;;;20.75;77.03
71361;BME280;59166;48.908;1.870;2023-09-19T15:16:36;100048.41;;;20.66;76.49
71361;BME280;59166;48.908;1.870;2023-09-19T15:21:37;100050.19;;;20.71;75.77
71361;BME280;59166;48.908;1.870;2023-09-19T15:26:40;100043.25;;;20.94;72.84
71361;BME280;59166;48.908;1.870;2023-09-19T15:31:40;100051.81;;;20.92;75.81
71361;BME280;59166;48.908;1.870;2023-09-19T15:36:41;100036.13;;;20.93;74.61
71361;BME280;59166;48.908;1.870;2023-09-19T15:41:45;100031.44;;;21.14;76.08
71361;BME280;59166;48.908;1.870;2023-09-19T15:46:46;100034.88;;;21.11;77.38
71361;BME280;59166;48.908;1.870;2023-09-19T15:51:47;100026.19;;;20.80;79.33
71361;BME280;59166;48.908;1.870;2023-09-19T15:56:49;100033.56;;;20.67;77.76
71361;BME280;59166;48.908;1.870;2023-09-19T16:01:50;100027.81;;;20.60;78.41
71361;BME280;59166;48.908;1.870;2023-09-19T16:06:51;100027.81;;;20.60;77.74
71361;BME280;59166;48.908;1.870;2023-09-19T16:11:53;100031.34;;;20.61;75.98
71361;BME280;59166;48.908;1.870;2023-09-19T16:16:53;100023.44;;;20.59;77.14
71361;BME280;59166;48.908;1.870;2023-09-19T16:21:54;100025.75;;;20.48;78.97
71361;BME280;59166;48.908;1.870;2023-09-19T16:26:56;100020.00;;;20.41;81.51
71361;BME280;59166;48.908;1.870;2023-09-19T16:31:57;100015.25;;;20.30;81.90
71361;BME280;59166;48.908;1.870;2023-09-19T16:36:57;100019.16;;;20.20;81.29
71361;BME280;59166;48.908;1.870;2023-09-19T16:41:59;100011.19;;;20.07;82.88
71361;BME280;59166;48.908;1.870;2023-09-19T16:47:00;100003.59;;;20.04;81.49
71361;BME280;59166;48.908;1.870;2023-09-19T16:52:01;100012.44;;;20.09;80.90
71361;BME280;59166;48.908;1.870;2023-09-19T16:57:03;100019.72;;;19.96;82.36
71361;BME280;59166;48.908;1.870;2023-09-19T17:02:04;100012.50;;;19.92;82.32
71361;BME280;59166;48.908;1.870;2023-09-19T17:07:05;100021.53;;;19.84;84.08
71361;BME280;59166;48.908;1.870;2023-09-19T17:12:08;100011.25;;;19.81;84.08
71361;BME280;59166;48.908;1.870;2023-09-19T17:17:09;100000.31;;;19.72;86.41
71361;BME280;59166;48.908;1.870;2023-09-19T17:22:09;99997.59;;;19.64;86.86
71361;BME280;59166;48.908;1.870;2023-09-19T17:27:11;99994.41;;;19.53;87.35
71361;BME280;59166;48.908;1.870;2023-09-19T17:32:12;99996.53;;;19.47;88.37
71361;BME280;59166;48.908;1.870;2023-09-19T17:37:14;100006.03;;;19.50;88.01
71361;BME280;59166;48.908;1.870;2023-09-19T17:42:16;99997.84;;;19.41;88.86
71361;BME280;59166;48.908;1.870;2023-09-19T17:47:16;99992.38;;;19.33;90.12
71361;BME280;59166;48.908;1.870;2023-09-19T17:52:17;99989.66;;;19.24;90.85
71361;BME280;59166;48.908;1.870;2023-09-19T17:57:19;99994.16;;;19.20;91.82
71361;BME280;59166;48.908;1.870;2023-09-19T18:02:20;99989.03;;;19.19;92.38
71361;BME280;59166;48.908;1.870;2023-09-19T18:07:20;99984.34;;;19.19;92.54
71361;BME280;59166;48.908;1.870;2023-09-19T18:12:22;99990.47;;;19.16;93.02
71361;BME280;59166;48.908;1.870;2023-09-19T18:17:23;99982.44;;;19.11;93.25
71361;BME280;59166;48.908;1.870;2023-09-19T18:22:24;99985.78;;;19.08;94.18
71361;BME280;59166;48.908;1.870;2023-09-19T18:27:26;99986.44;;;19.05;94.64
71361;BME280;59166;48.908;1.870;2023-09-19T18:32:27;99999.63;;;19.03;94.72
71361;BME280;59166;48.908;1.870;2023-09-19T18:37:27;99991.59;;;18.98;94.75
71361;BME280;59166;48.908;1.870;2023-09-19T18:42:30;99992.41;;;18.90;95.20
71361;BME280;59166;48.908;1.870;2023-09-19T18:47:30;100000.13;;;18.96;94.83
71361;BME280;59166;48.908;1.870;2023-09-19T18:52:31;100005.13;;;18.94;94.85
71361;BME280;59166;48.908;1.870;2023-09-19T18:57:33;99999.50;;;18.91;95.29
71361;BME280;59166;48.908;1.870;2023-09-19T19:02:34;100007.84;;;18.86;95.23
71361;BME280;59166;48.908;1.870;2023-09-19T19:07:34;100011.22;;;18.83;95.36
71361;BME280;59166;48.908;1.870;2023-09-19T19:12:37;100006.56;;;18.83;95.78
71361;BME280;59166;48.908;1.870;2023-09-19T19:17:38;100000.28;;;18.83;96.14
71361;BME280;59166;48.908;1.870;2023-09-19T19:22:39;99996.56;;;18.79;95.75
71361;BME280;59166;48.908;1.870;2023-09-19T19:27:41;100002.38;;;18.77;96.82
71361;BME280;59166;48.908;1.870;2023-09-19T19:32:41;100003.34;;;18.73;97.35
71361;BME280;59166;48.908;1.870;2023-09-19T19:37:43;99995.63;;;18.66;97.50
71361;BME280;59166;48.908;1.870;2023-09-19T19:42:45;100000.91;;;18.63;97.79
71361;BME280;59166;48.908;1.870;2023-09-19T19:47:46;100002.22;;;18.57;97.56
71361;BME280;59166;48.908;1.870;2023-09-19T19:52:50;100004.94;;;18.57;97.88
71361;BME280;59166;48.908;1.870;2023-09-19T19:57:52;100011.72;;;18.51;99.18
71361;BME280;59166;48.908;1.870;2023-09-19T20:02:53;100002.34;;;18.52;98.48
71361;BME280;59166;48.908;1.870;2023-09-19T20:07:54;100021.03;;;18.50;98.44
71361;BME280;59166;48.908;1.870;2023-09-19T20:12:56;100010.25;;;18.53;98.47
71361;BME280;59166;48.908;1.870;2023-09-19T20:17:56;100017.19;;;18.51;98.12
71361;BME280;59166;48.908;1.870;2023-09-19T20:22:57;100009.09;;;18.45;98.99
71361;BME280;59166;48.908;1.870;2023-09-19T20:27:59;100012.47;;;18.42;98.69
71361;BME280;59166;48.908;1.870;2023-09-19T20:32:59;100002.69;;;18.50;98.27
71361;BME280;59166;48.908;1.870;2023-09-19T20:38:00;99999.63;;;18.52;98.61
71361;BME280;59166;48.908;1.870;2023-09-19T20:43:02;100013.00;;;18.53;98.25
71361;BME280;59166;48.908;1.870;2023-09-19T20:48:04;100017.50;;;18.58;98.14
71361;BME280;59166;48.908;1.870;2023-09-19T20:53:04;100014.09;;;18.52;98.89
71361;BME280;59166;48.908;1.870;2023-09-19T20:58:07;100014.28;;;18.56;98.28
71361;BME280;59166;48.908;1.870;2023-09-19T21:03:07;100005.91;;;18.52;99.49
71361;BME280;59166;48.908;1.870;2023-09-19T21:08:08;99999.78;;;18.55;98.15
71361;BME280;59166;48.908;1.870;2023-09-19T21:13:10;100003.00;;;18.48;99.75
71361;BME280;59166;48.908;1.870;2023-09-19T21:18:11;99984.50;;;18.45;100.00
71361;BME280;59166;48.908;1.870;2023-09-19T21:23:13;99985.94;;;18.43;100.00
71361;BME280;59166;48.908;1.870;2023-09-19T21:28:16;99977.41;;;18.36;100.00
71361;BME280;59166;48.908;1.870;2023-09-19T21:33:17;99977.56;;;18.31;100.00
71361;BME280;59166;48.908;1.870;2023-09-19T21:38:18;99978.34;;;18.23;100.00
71361;BME280;59166;48.908;1.870;2023-09-19T21:43:21;99986.56;;;18.23;100.00
71361;BME280;59166;48.908;1.870;2023-09-19T21:48:22;99977.53;;;18.22;100.00
71361;BME280;59166;48.908;1.870;2023-09-19T21:53:23;99967.41;;;18.23;100.00
71361;BME280;59166;48.908;1.870;2023-09-19T21:58:25;99973.34;;;18.16;100.00
71361;BME280;59166;48.908;1.870;2023-09-19T22:03:26;99965.41;;;18.06;100.00
71361;BME280;59166;48.908;1.870;2023-09-19T22:08:26;99960.44;;;18.08;100.00
71361;BME280;59166;48.908;1.870;2023-09-19T22:13:29;99962.00;;;18.01;100.00
71361;BME280;59166;48.908;1.870;2023-09-19T22:18:29;99962.66;;;17.97;100.00
71361;BME280;59166;48.908;1.870;2023-09-19T22:23:30;99964.44;;;18.02;100.00
71361;BME280;59166;48.908;1.870;2023-09-19T22:28:33;99956.41;;;17.97;100.00
71361;BME280;59166;48.908;1.870;2023-09-19T22:33:35;99959.91;;;17.89;100.00
71361;BME280;59166;48.908;1.870;2023-09-19T22:38:35;99962.00;;;17.92;100.00
71361;BME280;59166;48.908;1.870;2023-09-19T22:43:38;99962.00;;;17.92;100.00
71361;BME280;59166;48.908;1.870;2023-09-19T22:48:38;99962.63;;;17.89;100.00
71361;BME280;59166;48.908;1.870;2023-09-19T22:53:39;99956.81;;;17.82;100.00
71361;BME280;59166;48.908;1.870;2023-09-19T22:58:43;99955.19;;;17.81;100.00
71361;BME280;59166;48.908;1.870;2023-09-19T23:03:44;99957.81;;;17.86;100.00
71361;BME280;59166;48.908;1.870;2023-09-19T23:08:45;99947.50;;;17.83;100.00
71361;BME280;59166;48.908;1.870;2023-09-19T23:13:47;99951.84;;;17.84;100.00
71361;BME280;59166;48.908;1.870;2023-09-19T23:18:48;99951.00;;;17.75;100.00
71361;BME280;59166;48.908;1.870;2023-09-19T23:23:48;99957.09;;;17.72;100.00
71361;BME280;59166;48.908;1.870;2023-09-19T23:28:51;99959.66;;;17.68;100.00
71361;BME280;59166;48.908;1.870;2023-09-19T23:33:52;99956.75;;;17.65;100.00
71361;BME280;59166;48.908;1.870;2023-09-19T23:38:52;99966.88;;;17.64;100.00
71361;BME280;59166;48.908;1.870;2023-09-19T23:43:54;99966.50;;;17.57;100.00
71361;BME280;59166;48.908;1.870;2023-09-19T23:48:55;99962.00;;;17.53;100.00
71361;BME280;59166;48.908;1.870;2023-09-19T23:53:55;99959.59;;;17.51;100.00
71361;BME280;59166;48.908;1.870;2023-09-19T23:58:58;99945.13;;;17.51;100.00
